Mc Queeney, Texas
Current Conditions -  °F | °C
As of 9:10 PM on Friday 19 Dec 2014 (Local Time) from KBAZ Reporting Station
Overcast Overcast  
Wind Chill: 53°   Ceiling: 1400
Heat Index: 53°   Visibility: 10mi
Dew Point: 46°   Wind: 12mph
Humidity: 77%   Direction: 30°NNE
Pressure: 30.16"   Gusts: NA
Location:  29.6006°N, 98.0277°W
Report Text: KBAZ 200310Z AUTO 03010KT 10SM OVC014 12/08 A3016 RMK AO2 T01170078
Loading
Personal Weather Stations






























Interactive Weather Map New forecast layout! Learn more

10-Day Weather Forecast

Advertisements
Track Severe Weather on mobile